sensor_id;sensor_type;location;lat;lon;timestamp;pressure;altitude;pressure_sealevel;temperature;humidity
63006;BME280;53704;52.532;6.426;2022-08-01T00:00:21;101515.88;;;18.00;100.00
63006;BME280;53704;52.532;6.426;2022-08-01T00:02:47;101522.72;;;18.17;100.00
63006;BME280;53704;52.532;6.426;2022-08-01T00:05:12;101515.13;;;18.13;100.00
63006;BME280;53704;52.532;6.426;2022-08-01T00:07:38;101523.06;;;18.07;100.00
63006;BME280;53704;52.532;6.426;2022-08-01T00:10:04;101516.50;;;18.23;100.00
63006;BME280;53704;52.532;6.426;2022-08-01T00:12:30;101515.63;;;18.23;100.00
63006;BME280;53704;52.532;6.426;2022-08-01T00:14:56;101523.47;;;18.04;100.00
63006;BME280;53704;52.532;6.426;2022-08-01T00:17:21;101529.72;;;18.26;100.00
63006;BME280;53704;52.532;6.426;2022-08-01T00:19:47;101529.16;;;18.10;100.00
63006;BME280;53704;52.532;6.426;2022-08-01T00:22:12;101532.06;;;17.86;100.00
63006;BME280;53704;52.532;6.426;2022-08-01T00:24:37;101530.69;;;17.76;100.00
63006;BME280;53704;52.532;6.426;2022-08-01T00:27:03;101532.97;;;17.72;100.00
63006;BME280;53704;52.532;6.426;2022-08-01T00:29:28;101526.50;;;17.95;100.00
63006;BME280;53704;52.532;6.426;2022-08-01T00:31:54;101535.00;;;18.06;100.00
63006;BME280;53704;52.532;6.426;2022-08-01T00:34:19;101529.53;;;18.06;100.00
63006;BME280;53704;52.532;6.426;2022-08-01T00:36:45;101525.53;;;18.02;100.00
63006;BME280;53704;52.532;6.426;2022-08-01T00:39:11;101528.84;;;18.26;100.00
63006;BME280;53704;52.532;6.426;2022-08-01T00:41:37;101535.69;;;18.15;100.00
63006;BME280;53704;52.532;6.426;2022-08-01T00:44:04;101530.78;;;18.04;100.00
63006;BME280;53704;52.532;6.426;2022-08-01T00:46:31;101533.94;;;17.86;100.00
63006;BME280;53704;52.532;6.426;2022-08-01T00:48:57;101528.81;;;17.98;100.00
63006;BME280;53704;52.532;6.426;2022-08-01T00:51:22;101533.84;;;17.94;100.00
63006;BME280;53704;52.532;6.426;2022-08-01T00:53:49;101536.94;;;18.13;100.00
63006;BME280;53704;52.532;6.426;2022-08-01T00:56:16;101538.09;;;18.03;100.00
63006;BME280;53704;52.532;6.426;2022-08-01T00:58:41;101533.25;;;17.99;100.00
63006;BME280;53704;52.532;6.426;2022-08-01T01:01:07;101526.78;;;18.28;99.67
63006;BME280;53704;52.532;6.426;2022-08-01T01:03:33;101526.66;;;18.36;98.21
63006;BME280;53704;52.532;6.426;2022-08-01T01:06:27;101531.63;;;18.33;99.58
63006;BME280;53704;52.532;6.426;2022-08-01T01:12:15;101531.97;;;17.58;100.00
63006;BME280;53704;52.532;6.426;2022-08-01T01:14:50;101530.84;;;17.89;100.00
63006;BME280;53704;52.532;6.426;2022-08-01T01:17:19;101532.81;;;17.95;100.00
63006;BME280;53704;52.532;6.426;2022-08-01T01:19:48;101532.13;;;17.93;100.00
63006;BME280;53704;52.532;6.426;2022-08-01T01:25:08;101527.66;;;18.07;100.00
63006;BME280;53704;52.532;6.426;2022-08-01T01:28:40;101541.22;;;18.00;
63006;BME280;53704;52.532;6.426;2022-08-01T01:30:46;101531.09;;;18.16;100.00
63006;BME280;53704;52.532;6.426;2022-08-01T01:33:14;101528.78;;;17.91;100.00
63006;BME280;53704;52.532;6.426;2022-08-01T01:35:49;101534.00;;;18.14;100.00
63006;BME280;53704;52.532;6.426;2022-08-01T01:38:26;101533.72;;;18.31;98.66
63006;BME280;53704;52.532;6.426;2022-08-01T01:40:55;101535.44;;;18.10;99.81
63006;BME280;53704;52.532;6.426;2022-08-01T01:43:21;101541.66;;;18.25;98.99
63006;BME280;53704;52.532;6.426;2022-08-01T01:45:49;101540.28;;;18.36;98.69
63006;BME280;53704;52.532;6.426;2022-08-01T01:48:18;101543.81;;;18.37;98.29
63006;BME280;53704;52.532;6.426;2022-08-01T01:50:46;101540.94;;;18.17;98.58
63006;BME280;53704;52.532;6.426;2022-08-01T01:53:14;101539.94;;;18.24;99.52
63006;BME280;53704;52.532;6.426;2022-08-01T01:55:41;101542.00;;;18.16;99.52
63006;BME280;53704;52.532;6.426;2022-08-01T01:58:09;101544.78;;;18.01;100.00
63006;BME280;53704;52.532;6.426;2022-08-01T02:00:37;101541.28;;;18.07;100.00
63006;BME280;53704;52.532;6.426;2022-08-01T02:03:05;101545.50;;;17.88;100.00
63006;BME280;53704;52.532;6.426;2022-08-01T02:05:32;101547.84;;;17.91;100.00
63006;BME280;53704;52.532;6.426;2022-08-01T02:08:01;101546.13;;;18.12;100.00
63006;BME280;53704;52.532;6.426;2022-08-01T02:10:29;101550.22;;;18.01;100.00
63006;BME280;53704;52.532;6.426;2022-08-01T02:12:57;101551.47;;;17.98;100.00
63006;BME280;53704;52.532;6.426;2022-08-01T02:15:25;101548.19;;;18.03;100.00
63006;BME280;53704;52.532;6.426;2022-08-01T02:17:52;101556.66;;;18.15;100.00
63006;BME280;53704;52.532;6.426;2022-08-01T02:20:18;101550.81;;;17.96;100.00
63006;BME280;53704;52.532;6.426;2022-08-01T02:22:50;101559.31;;;18.08;100.00
63006;BME280;53704;52.532;6.426;2022-08-01T02:25:50;101554.47;;;18.03;100.00
63006;BME280;53704;52.532;6.426;2022-08-01T02:28:29;101549.84;;;18.04;100.00
63006;BME280;53704;52.532;6.426;2022-08-01T02:31:00;101551.19;;;18.15;100.00
63006;BME280;53704;52.532;6.426;2022-08-01T02:33:54;101547.06;;;17.97;100.00
63006;BME280;53704;52.532;6.426;2022-08-01T02:36:19;101543.66;;;17.88;100.00
63006;BME280;53704;52.532;6.426;2022-08-01T02:38:46;101546.91;;;18.05;100.00
63006;BME280;53704;52.532;6.426;2022-08-01T02:41:16;101548.28;;;17.95;100.00
63006;BME280;53704;52.532;6.426;2022-08-01T02:43:48;101539.31;;;17.58;100.00
63006;BME280;53704;52.532;6.426;2022-08-01T02:46:22;101544.34;;;17.97;100.00
63006;BME280;53704;52.532;6.426;2022-08-01T02:48:52;101551.06;;;17.80;100.00
63006;BME280;53704;52.532;6.426;2022-08-01T02:51:19;101552.16;;;17.64;100.00
63006;BME280;53704;52.532;6.426;2022-08-01T02:53:47;101543.59;;;17.67;100.00
63006;BME280;53704;52.532;6.426;2022-08-01T02:56:13;101547.41;;;17.51;100.00
63006;BME280;53704;52.532;6.426;2022-08-01T02:58:41;101548.78;;;17.62;100.00
63006;BME280;53704;52.532;6.426;2022-08-01T03:01:08;101553.38;;;17.83;100.00
63006;BME280;53704;52.532;6.426;2022-08-01T03:03:37;101548.13;;;17.81;100.00
63006;BME280;53704;52.532;6.426;2022-08-01T03:06:03;101553.38;;;17.61;100.00
63006;BME280;53704;52.532;6.426;2022-08-01T03:08:30;101558.09;;;17.52;100.00
63006;BME280;53704;52.532;6.426;2022-08-01T03:10:57;101566.41;;;17.44;100.00
63006;BME280;53704;52.532;6.426;2022-08-01T03:13:25;101571.97;;;17.21;100.00
63006;BME280;53704;52.532;6.426;2022-08-01T03:15:53;101567.53;;;17.20;100.00
63006;BME280;53704;52.532;6.426;2022-08-01T03:18:20;101570.25;;;17.20;100.00
63006;BME280;53704;52.532;6.426;2022-08-01T03:20:48;101563.69;;;17.29;100.00
63006;BME280;53704;52.532;6.426;2022-08-01T03:23:15;101568.63;;;17.41;100.00
63006;BME280;53704;52.532;6.426;2022-08-01T03:25:43;101576.78;;;17.41;100.00
63006;BME280;53704;52.532;6.426;2022-08-01T03:28:12;101575.72;;;17.57;100.00
63006;BME280;53704;52.532;6.426;2022-08-01T03:30:39;101570.28;;;17.57;100.00
63006;BME280;53704;52.532;6.426;2022-08-01T03:33:05;101579.00;;;17.67;100.00
63006;BME280;53704;52.532;6.426;2022-08-01T03:35:37;101573.56;;;17.52;100.00
63006;BME280;53704;52.532;6.426;2022-08-01T03:38:08;101573.38;;;17.53;100.00
63006;BME280;53704;52.532;6.426;2022-08-01T03:40:39;101575.38;;;17.45;100.00
63006;BME280;53704;52.532;6.426;2022-08-01T03:43:09;101577.47;;;17.43;100.00
63006;BME280;53704;52.532;6.426;2022-08-01T03:45:40;101573.13;;;17.48;100.00
63006;BME280;53704;52.532;6.426;2022-08-01T03:48:13;101577.53;;;17.49;100.00
63006;BME280;53704;52.532;6.426;2022-08-01T03:50:42;101581.31;;;17.33;100.00
63006;BME280;53704;52.532;6.426;2022-08-01T03:53:08;101579.38;;;17.64;100.00
63006;BME280;53704;52.532;6.426;2022-08-01T03:55:37;101579.13;;;17.44;100.00
63006;BME280;53704;52.532;6.426;2022-08-01T03:58:04;101577.09;;;17.31;100.00
63006;BME280;53704;52.532;6.426;2022-08-01T04:00:30;101581.03;;;17.28;100.00
63006;BME280;53704;52.532;6.426;2022-08-01T04:02:56;101577.59;;;17.56;100.00
63006;BME280;53704;52.532;6.426;2022-08-01T04:05:22;101575.19;;;17.46;100.00
63006;BME280;53704;52.532;6.426;2022-08-01T04:07:48;101572.94;;;17.50;100.00
63006;BME280;53704;52.532;6.426;2022-08-01T04:10:21;101583.00;;;17.49;100.00
63006;BME280;53704;52.532;6.426;2022-08-01T04:12:46;101576.47;;;17.50;100.00
63006;BME280;53704;52.532;6.426;2022-08-01T04:15:12;101578.13;;;17.45;100.00
63006;BME280;53704;52.532;6.426;2022-08-01T04:17:39;101578.88;;;17.39;100.00
63006;BME280;53704;52.532;6.426;2022-08-01T04:20:04;101584.78;;;17.42;100.00
63006;BME280;53704;52.532;6.426;2022-08-01T04:22:30;101587.53;;;17.27;100.00
63006;BME280;53704;52.532;6.426;2022-08-01T04:24:57;101595.88;;;17.11;100.00
63006;BME280;53704;52.532;6.426;2022-08-01T04:27:28;101602.56;;;17.08;100.00
63006;BME280;53704;52.532;6.426;2022-08-01T04:29:58;101598.97;;;17.08;100.00
63006;BME280;53704;52.532;6.426;2022-08-01T04:32:25;101603.19;;;17.10;100.00
63006;BME280;53704;52.532;6.426;2022-08-01T04:34:53;101608.28;;;17.13;100.00
63006;BME280;53704;52.532;6.426;2022-08-01T04:37:22;101610.25;;;17.05;100.00
63006;BME280;53704;52.532;6.426;2022-08-01T04:39:51;101611.94;;;17.06;100.00
63006;BME280;53704;52.532;6.426;2022-08-01T04:42:18;101610.13;;;16.98;100.00
63006;BME280;53704;52.532;6.426;2022-08-01T04:44:44;101609.09;;;16.84;100.00
63006;BME280;53704;52.532;6.426;2022-08-01T04:47:10;101618.31;;;17.13;100.00
63006;BME280;53704;52.532;6.426;2022-08-01T04:49:36;101620.16;;;17.12;100.00
63006;BME280;53704;52.532;6.426;2022-08-01T04:52:02;101626.75;;;17.03;100.00
63006;BME280;53704;52.532;6.426;2022-08-01T04:54:30;101621.69;;;17.15;100.00
63006;BME280;53704;52.532;6.426;2022-08-01T04:56:59;101627.03;;;17.08;100.00
63006;BME280;53704;52.532;6.426;2022-08-01T04:59:29;101631.16;;;17.04;100.00
63006;BME280;53704;52.532;6.426;2022-08-01T05:02:14;101626.16;;;17.08;100.00
63006;BME280;53704;52.532;6.426;2022-08-01T05:04:40;101622.25;;;16.95;100.00
63006;BME280;53704;52.532;6.426;2022-08-01T05:07:06;101630.41;;;16.95;100.00
63006;BME280;53704;52.532;6.426;2022-08-01T05:09:32;101627.59;;;17.18;100.00
63006;BME280;53704;52.532;6.426;2022-08-01T05:11:59;101638.97;;;17.22;100.00
63006;BME280;53704;52.532;6.426;2022-08-01T05:14:26;101638.28;;;17.05;100.00
63006;BME280;53704;52.532;6.426;2022-08-01T05:16:52;101640.19;;;17.05;100.00
63006;BME280;53704;52.532;6.426;2022-08-01T05:19:17;101631.91;;;16.98;100.00
63006;BME280;53704;52.532;6.426;2022-08-01T05:21:43;101635.84;;;16.95;100.00
63006;BME280;53704;52.532;6.426;2022-08-01T05:24:08;101651.06;;;17.05;100.00
63006;BME280;53704;52.532;6.426;2022-08-01T05:26:34;101654.78;;;17.18;100.00
63006;BME280;53704;52.532;6.426;2022-08-01T05:28:59;101651.34;;;17.10;100.00
63006;BME280;53704;52.532;6.426;2022-08-01T05:31:25;101649.53;;;17.17;100.00
63006;BME280;53704;52.532;6.426;2022-08-01T05:33:50;101652.84;;;17.27;100.00
63006;BME280;53704;52.532;6.426;2022-08-01T05:36:16;101657.16;;;17.07;100.00
63006;BME280;53704;52.532;6.426;2022-08-01T05:38:41;101663.69;;;16.97;100.00
63006;BME280;53704;52.532;6.426;2022-08-01T05:41:07;101651.72;;;17.07;100.00
63006;BME280;53704;52.532;6.426;2022-08-01T05:43:32;101662.75;;;16.90;100.00
63006;BME280;53704;52.532;6.426;2022-08-01T05:45:58;101667.88;;;16.85;100.00
63006;BME280;53704;52.532;6.426;2022-08-01T05:48:24;101663.69;;;16.97;100.00
63006;BME280;53704;52.532;6.426;2022-08-01T05:50:49;101664.72;;;16.96;100.00
63006;BME280;53704;52.532;6.426;2022-08-01T05:53:15;101660.69;;;16.92;100.00
63006;BME280;53704;52.532;6.426;2022-08-01T05:55:41;101655.44;;;16.91;100.00
63006;BME280;53704;52.532;6.426;2022-08-01T05:58:06;101663.59;;;16.91;100.00
63006;BME280;53704;52.532;6.426;2022-08-01T06:00:32;101670.06;;;16.90;100.00
63006;BME280;53704;52.532;6.426;2022-08-01T06:02:57;101671.06;;;17.27;100.00
63006;BME280;53704;52.532;6.426;2022-08-01T06:05:23;101666.78;;;17.09;99.25
63006;BME280;53704;52.532;6.426;2022-08-01T06:07:48;101673.66;;;17.20;100.00
63006;BME280;53704;52.532;6.426;2022-08-01T06:10:14;101678.53;;;17.10;99.77
63006;BME280;53704;52.532;6.426;2022-08-01T06:12:39;101678.53;;;17.10;100.00
63006;BME280;53704;52.532;6.426;2022-08-01T06:15:05;101678.34;;;17.26;98.94
63006;BME280;53704;52.532;6.426;2022-08-01T06:17:31;101679.94;;;17.06;98.73
63006;BME280;53704;52.532;6.426;2022-08-01T06:19:56;101677.88;;;17.23;98.76
63006;BME280;53704;52.532;6.426;2022-08-01T06:22:21;101681.63;;;17.22;97.86
63006;BME280;53704;52.532;6.426;2022-08-01T06:24:47;101685.28;;;17.14;98.96
63006;BME280;53704;52.532;6.426;2022-08-01T06:27:12;101687.56;;;17.25;97.51
63006;BME280;53704;52.532;6.426;2022-08-01T06:29:38;101689.97;;;17.20;98.29
63006;BME280;53704;52.532;6.426;2022-08-01T06:32:03;101698.81;;;17.22;97.83
63006;BME280;53704;52.532;6.426;2022-08-01T06:34:29;101693.06;;;17.17;97.96
63006;BME280;53704;52.532;6.426;2022-08-01T06:36:54;101695.69;;;17.10;98.13
63006;BME280;53704;52.532;6.426;2022-08-01T06:39:20;101706.41;;;17.12;99.16
63006;BME280;53704;52.532;6.426;2022-08-01T06:41:45;101705.38;;;17.13;98.24
63006;BME280;53704;52.532;6.426;2022-08-01T06:44:13;101710.63;;;17.14;98.71
63006;BME280;53704;52.532;6.426;2022-08-01T06:46:39;101718.25;;;17.19;97.47
63006;BME280;53704;52.532;6.426;2022-08-01T06:49:05;101722.44;;;17.22;97.28
63006;BME280;53704;52.532;6.426;2022-08-01T06:51:30;101723.97;;;17.39;97.62
63006;BME280;53704;52.532;6.426;2022-08-01T06:53:55;101729.88;;;17.28;96.39
63006;BME280;53704;52.532;6.426;2022-08-01T06:56:21;101727.97;;;16.98;96.66
63006;BME280;53704;52.532;6.426;2022-08-01T06:58:46;101732.44;;;17.06;96.57
63006;BME280;53704;52.532;6.426;2022-08-01T07:01:12;101731.72;;;17.12;96.36
63006;BME280;53704;52.532;6.426;2022-08-01T07:03:38;101727.06;;;17.36;94.88
63006;BME280;53704;52.532;6.426;2022-08-01T07:06:03;101732.94;;;17.10;94.21
63006;BME280;53704;52.532;6.426;2022-08-01T07:08:29;101734.63;;;17.11;95.24
63006;BME280;53704;52.532;6.426;2022-08-01T07:10:55;101736.13;;;17.13;96.20
63006;BME280;53704;52.532;6.426;2022-08-01T07:13:24;101725.00;;;17.38;94.16
63006;BME280;53704;52.532;6.426;2022-08-01T07:15:51;101736.03;;;17.07;95.55
63006;BME280;53704;52.532;6.426;2022-08-01T07:18:17;101734.22;;;16.76;94.45
63006;BME280;53704;52.532;6.426;2022-08-01T07:20:42;101739.66;;;16.76;95.35
63006;BME280;53704;52.532;6.426;2022-08-01T07:23:08;101739.72;;;16.68;95.20
63006;BME280;53704;52.532;6.426;2022-08-01T07:25:34;101743.53;;;16.58;95.27
63006;BME280;53704;52.532;6.426;2022-08-01T07:27:59;101740.28;;;16.63;94.84
63006;BME280;53704;52.532;6.426;2022-08-01T07:30:24;101744.16;;;16.69;94.70
63006;BME280;53704;52.532;6.426;2022-08-01T07:32:50;101746.44;;;16.57;94.67
63006;BME280;53704;52.532;6.426;2022-08-01T07:35:16;101744.56;;;16.80;93.36
63006;BME280;53704;52.532;6.426;2022-08-01T07:37:41;101750.53;;;16.76;94.40
63006;BME280;53704;52.532;6.426;2022-08-01T07:40:07;101750.34;;;16.77;93.91
63006;BME280;53704;52.532;6.426;2022-08-01T07:42:32;101749.53;;;17.00;94.30
63006;BME280;53704;52.532;6.426;2022-08-01T07:44:58;101753.03;;;16.86;93.03
63006;BME280;53704;52.532;6.426;2022-08-01T07:47:24;101766.09;;;16.90;92.89
63006;BME280;53704;52.532;6.426;2022-08-01T07:49:50;101769.91;;;16.81;92.88
63006;BME280;53704;52.532;6.426;2022-08-01T07:52:16;101766.69;;;17.00;91.20
63006;BME280;53704;52.532;6.426;2022-08-01T07:54:41;101773.53;;;16.96;93.40
63006;BME280;53704;52.532;6.426;2022-08-01T07:57:07;101774.50;;;17.18;92.14
63006;BME280;53704;52.532;6.426;2022-08-01T07:59:32;101774.03;;;17.15;91.06
63006;BME280;53704;52.532;6.426;2022-08-01T08:01:58;101781.06;;;17.09;93.74
63006;BME280;53704;52.532;6.426;2022-08-01T08:04:24;101787.66;;;17.30;91.95
63006;BME280;53704;52.532;6.426;2022-08-01T08:06:49;101784.59;;;17.48;93.37
63006;BME280;53704;52.532;6.426;2022-08-01T08:09:15;101781.16;;;17.84;92.94
63006;BME280;53704;52.532;6.426;2022-08-01T08:11:43;101782.28;;;18.04;90.54
63006;BME280;53704;52.532;6.426;2022-08-01T08:14:08;101779.75;;;17.88;88.17
63006;BME280;53704;52.532;6.426;2022-08-01T08:16:34;101788.94;;;17.87;88.15
63006;BME280;53704;52.532;6.426;2022-08-01T08:18:59;101783.16;;;17.90;89.03
63006;BME280;53704;52.532;6.426;2022-08-01T08:21:24;101784.91;;;17.98;86.60
63006;BME280;53704;52.532;6.426;2022-08-01T08:23:50;101789.22;;;18.07;83.80
63006;BME280;53704;52.532;6.426;2022-08-01T08:26:34;101787.75;;;18.04;85.47
63006;BME280;53704;52.532;6.426;2022-08-01T08:29:00;101787.78;;;18.26;85.08
63006;BME280;53704;52.532;6.426;2022-08-01T08:31:25;101790.84;;;18.01;84.68
63006;BME280;53704;52.532;6.426;2022-08-01T08:33:51;101792.03;;;18.14;83.77
63006;BME280;53704;52.532;6.426;2022-08-01T08:36:17;101795.22;;;18.02;85.36
63006;BME280;53704;52.532;6.426;2022-08-01T08:38:42;101800.59;;;18.11;85.19
63006;BME280;53704;52.532;6.426;2022-08-01T08:41:08;101790.19;;;18.36;83.32
63006;BME280;53704;52.532;6.426;2022-08-01T08:43:35;101805.63;;;18.65;82.48
63006;BME280;53704;52.532;6.426;2022-08-01T08:46:01;101802.38;;;18.76;82.77
63006;BME280;53704;52.532;6.426;2022-08-01T08:48:26;101809.94;;;18.38;80.99
63006;BME280;53704;52.532;6.426;2022-08-01T08:50:52;101815.34;;;18.16;84.46
63006;BME280;53704;52.532;6.426;2022-08-01T08:53:18;101820.97;;;18.30;79.54
63006;BME280;53704;52.532;6.426;2022-08-01T08:55:44;101818.31;;;18.58;79.68
63006;BME280;53704;52.532;6.426;2022-08-01T08:58:13;101815.50;;;18.66;79.77
63006;BME280;53704;52.532;6.426;2022-08-01T09:00:40;101820.75;;;18.68;77.13
63006;BME280;53704;52.532;6.426;2022-08-01T09:03:06;101823.88;;;18.65;76.03
63006;BME280;53704;52.532;6.426;2022-08-01T09:05:31;101822.03;;;18.87;78.50
63006;BME280;53704;52.532;6.426;2022-08-01T09:07:57;101828.59;;;18.92;80.10
63006;BME280;53704;52.532;6.426;2022-08-01T09:10:22;101827.84;;;19.05;76.48
63006;BME280;53704;52.532;6.426;2022-08-01T09:18:08;101841.75;;;19.60;75.50
63006;BME280;53704;52.532;6.426;2022-08-01T09:20:50;101842.19;;;19.64;74.32
63006;BME280;53704;52.532;6.426;2022-08-01T09:23:36;101839.69;;;19.12;75.25
63006;BME280;53704;52.532;6.426;2022-08-01T09:26:06;101842.25;;;19.42;73.36
63006;BME280;53704;52.532;6.426;2022-08-01T09:28:32;101836.81;;;18.99;73.02
63006;BME280;53704;52.532;6.426;2022-08-01T09:30:58;101843.00;;;19.08;73.17
63006;BME280;53704;52.532;6.426;2022-08-01T09:33:24;101840.56;;;19.41;72.20
63006;BME280;53704;52.532;6.426;2022-08-01T09:35:56;101848.59;;;19.49;71.09
63006;BME280;53704;52.532;6.426;2022-08-01T09:38:24;101850.53;;;19.77;69.89
63006;BME280;53704;52.532;6.426;2022-08-01T09:40:56;101847.34;;;19.24;70.37
63006;BME280;53704;52.532;6.426;2022-08-01T09:43:24;101851.31;;;19.21;70.48
63006;BME280;53704;52.532;6.426;2022-08-01T09:45:51;101849.44;;;19.22;69.54
63006;BME280;53704;52.532;6.426;2022-08-01T09:48:17;101846.22;;;19.68;68.63
63006;BME280;53704;52.532;6.426;2022-08-01T09:50:45;101852.72;;;19.39;69.15
63006;BME280;53704;52.532;6.426;2022-08-01T09:53:12;101852.44;;;19.77;66.76
63006;BME280;53704;52.532;6.426;2022-08-01T09:55:39;101845.78;;;20.34;69.71
63006;BME280;53704;52.532;6.426;2022-08-01T09:58:05;101854.22;;;19.98;66.28
63006;BME280;53704;52.532;6.426;2022-08-01T10:00:32;101846.47;;;20.08;67.48
63006;BME280;53704;52.532;6.426;2022-08-01T10:02:59;101856.34;;;20.51;67.30
63006;BME280;53704;52.532;6.426;2022-08-01T10:05:35;101847.81;;;20.67;66.03
63006;BME280;53704;52.532;6.426;2022-08-01T10:08:03;101856.88;;;20.19;66.98
63006;BME280;53704;52.532;6.426;2022-08-01T10:10:30;101857.53;;;20.28;65.82
63006;BME280;53704;52.532;6.426;2022-08-01T10:12:57;101860.97;;;20.50;63.41
63006;BME280;53704;52.532;6.426;2022-08-01T10:15:25;101860.84;;;20.65;65.01
63006;BME280;53704;52.532;6.426;2022-08-01T10:17:54;101862.59;;;20.80;65.39
63006;BME280;53704;52.532;6.426;2022-08-01T10:20:23;101859.34;;;20.63;64.44
63006;BME280;53704;52.532;6.426;2022-08-01T10:22:49;101861.94;;;20.77;62.94
63006;BME280;53704;52.532;6.426;2022-08-01T10:25:17;101858.75;;;20.19;62.46
63006;BME280;53704;52.532;6.426;2022-08-01T10:27:43;101863.66;;;20.92;62.33
63006;BME280;53704;52.532;6.426;2022-08-01T10:30:12;101862.13;;;20.69;62.14
63006;BME280;53704;52.532;6.426;2022-08-01T10:32:38;101863.72;;;20.57;61.28
63006;BME280;53704;52.532;6.426;2022-08-01T10:35:05;101859.25;;;20.91;60.06
63006;BME280;53704;52.532;6.426;2022-08-01T10:37:33;101854.44;;;21.53;57.55
63006;BME280;53704;52.532;6.426;2022-08-01T10:39:59;101858.44;;;21.64;57.93
63006;BME280;53704;52.532;6.426;2022-08-01T10:42:25;101863.06;;;21.37;59.98
63006;BME280;53704;52.532;6.426;2022-08-01T10:44:51;101863.28;;;21.08;60.94
63006;BME280;53704;52.532;6.426;2022-08-01T10:48:02;101867.50;;;21.78;58.72
63006;BME280;53704;52.532;6.426;2022-08-01T10:50:43;101857.63;;;21.63;57.81
63006;BME280;53704;52.532;6.426;2022-08-01T10:53:17;101867.72;;;21.56;59.03
63006;BME280;53704;52.532;6.426;2022-08-01T10:58:33;101868.28;;;20.98;59.34
63006;BME280;53704;52.532;6.426;2022-08-01T11:01:21;101863.28;;;21.55;57.51
63006;BME280;53704;52.532;6.426;2022-08-01T11:04:10;101864.53;;;21.32;55.56
63006;BME280;53704;52.532;6.426;2022-08-01T11:06:49;101870.00;;;21.86;56.79
63006;BME280;53704;52.532;6.426;2022-08-01T11:09:20;101870.84;;;21.86;54.55
63006;BME280;53704;52.532;6.426;2022-08-01T11:12:12;101869.53;;;22.16;56.53
63006;BME280;53704;52.532;6.426;2022-08-01T11:17:39;101851.72;;;22.38;55.46
63006;BME280;53704;52.532;6.426;2022-08-01T11:20:18;101859.44;;;22.55;53.13
63006;BME280;53704;52.532;6.426;2022-08-01T11:25:25;101852.31;;;22.86;51.64
63006;BME280;53704;52.532;6.426;2022-08-01T11:30:49;101851.50;;;22.79;51.98
63006;BME280;53704;52.532;6.426;2022-08-01T11:33:16;101858.75;;;22.73;48.90
63006;BME280;53704;52.532;6.426;2022-08-01T11:38:41;101865.38;;;22.90;53.57
63006;BME280;53704;52.532;6.426;2022-08-01T11:44:25;101862.84;;;22.57;52.71
63006;BME280;53704;52.532;6.426;2022-08-01T11:52:07;101862.06;;;23.64;51.23
63006;BME280;53704;52.532;6.426;2022-08-01T11:54:45;101857.53;;;22.94;49.71
63006;BME280;53704;52.532;6.426;2022-08-01T11:59:43;101866.63;;;22.94;51.57
63006;BME280;53704;52.532;6.426;2022-08-01T12:02:20;101868.41;;;22.75;49.55
63006;BME280;53704;52.532;6.426;2022-08-01T12:04:56;101864.88;;;22.68;49.34
63006;BME280;53704;52.532;6.426;2022-08-01T12:07:24;101860.13;;;22.44;48.81
63006;BME280;53704;52.532;6.426;2022-08-01T12:10:19;101867.69;;;22.55;50.10
63006;BME280;53704;52.532;6.426;2022-08-01T12:12:51;101872.00;;;23.65;52.47
63006;BME280;53704;52.532;6.426;2022-08-01T12:15:18;101870.66;;;23.74;50.51
63006;BME280;53704;52.532;6.426;2022-08-01T12:20:13;101864.22;;;23.37;48.43
63006;BME280;53704;52.532;6.426;2022-08-01T12:22:39;101869.28;;;24.09;48.67
63006;BME280;53704;52.532;6.426;2022-08-01T12:25:10;101873.56;;;23.36;51.13
63006;BME280;53704;52.532;6.426;2022-08-01T12:27:38;101880.47;;;22.22;49.63
63006;BME280;53704;52.532;6.426;2022-08-01T12:30:09;101871.84;;;22.64;49.39
63006;BME280;53704;52.532;6.426;2022-08-01T12:32:37;101874.69;;;23.46;49.81
63006;BME280;53704;52.532;6.426;2022-08-01T12:35:07;101872.53;;;22.98;50.02
63006;BME280;53704;52.532;6.426;2022-08-01T12:37:40;101876.81;;;22.87;50.04
63006;BME280;53704;52.532;6.426;2022-08-01T12:40:13;101871.31;;;22.87;48.62
63006;BME280;53704;52.532;6.426;2022-08-01T12:42:41;101867.44;;;23.77;49.68
63006;BME280;53704;52.532;6.426;2022-08-01T12:45:08;101873.88;;;23.46;46.64
63006;BME280;53704;52.532;6.426;2022-08-01T12:47:38;101868.50;;;23.76;48.12
63006;BME280;53704;52.532;6.426;2022-08-01T12:50:11;101871.56;;;24.12;47.42
63006;BME280;53704;52.532;6.426;2022-08-01T12:52:37;101871.16;;;24.27;50.03
63006;BME280;53704;52.532;6.426;2022-08-01T12:55:11;101869.13;;;24.71;43.69
63006;BME280;53704;52.532;6.426;2022-08-01T12:57:38;101882.47;;;24.18;47.95
63006;BME280;53704;52.532;6.426;2022-08-01T13:02:34;101878.44;;;23.77;47.10
63006;BME280;53704;52.532;6.426;2022-08-01T13:04:59;101873.94;;;23.39;46.85
63006;BME280;53704;52.532;6.426;2022-08-01T13:07:45;101874.75;;;23.90;47.72
63006;BME280;53704;52.532;6.426;2022-08-01T13:10:12;101873.44;;;24.97;47.77
63006;BME280;53704;52.532;6.426;2022-08-01T13:12:39;101869.81;;;25.39;45.12
63006;BME280;53704;52.532;6.426;2022-08-01T13:15:26;101874.84;;;24.20;44.27
63006;BME280;53704;52.532;6.426;2022-08-01T13:17:53;101865.53;;;23.34;46.45
63006;BME280;53704;52.532;6.426;2022-08-01T13:20:24;101864.13;;;23.50;44.21
63006;BME280;53704;52.532;6.426;2022-08-01T13:22:50;101870.50;;;22.87;47.05
63006;BME280;53704;52.532;6.426;2022-08-01T13:25:17;101868.25;;;23.84;49.49
63006;BME280;53704;52.532;6.426;2022-08-01T13:27:43;101872.84;;;23.40;46.83
63006;BME280;53704;52.532;6.426;2022-08-01T13:30:19;101877.97;;;23.62;47.12
63006;BME280;53704;52.532;6.426;2022-08-01T13:33:04;101874.63;;;24.52;46.60